Time;durP1;ratioP1;P1;durP2;ratioP2;P2;SDS_P1;SDS_P2;PMS_P1;PMS_P2;Temp;Humidity;BMP_temperature;BMP_pressure;BME280_temperature;BME280_humidity;BME280_pressure;Samples;Min_cycle;Max_cycle;Signal;HPM_P1;HPM_P2
2021/12/24 00:01:46;;;;;;;32.90;19.00;;;;;;;-11.22;84.96;99822.53;1681424;84;22302;-79
2021/12/24 00:04:12;;;;;;;25.93;16.50;;;;;;;-11.20;84.87;99817.23;1742118;81;21685;-80
2021/12/24 00:06:40;;;;;;;28.50;17.17;;;;;;;-11.21;84.87;99810.38;1758420;80;21666;-78
2021/12/24 00:09:08;;;;;;;21.73;13.47;;;;;;;-11.21;84.84;99815.11;1757676;81;21711;-79
2021/12/24 00:11:35;;;;;;;17.63;12.93;;;;;;;-11.15;84.87;99816.44;1734118;81;22075;-79
2021/12/24 00:14:04;;;;;;;36.53;17.07;;;;;;;-11.19;84.81;99811.12;1736497;82;20917;-80
2021/12/24 00:16:40;;;;;;;19.07;11.63;;;;;;;-11.21;84.88;99804.73;1734915;81;21741;-78
2021/12/24 00:19:15;;;;;;;27.00;15.43;;;;;;;-11.21;85.02;99803.42;1723025;83;21716;-82
2021/12/24 00:35:28;;;;;;;26.80;16.43;;;;;;;-11.18;85.23;99770.78;1741713;80;21762;-82
2021/12/24 00:37:46;;;;;;;29.47;17.07;;;;;;;-11.16;85.16;99769.36;1720655;83;21600;-80
2021/12/24 00:40:18;;;;;;;15.37;10.10;;;;;;;-11.17;85.11;99760.73;1723145;82;21601;-80
2021/12/24 00:42:50;;;;;;;22.63;12.20;;;;;;;-11.16;85.05;99760.27;1743572;81;21685;-80
2021/12/24 00:45:25;;;;;;;30.50;16.13;;;;;;;-11.12;85.08;99756.50;1726216;83;21849;-81
2021/12/24 00:47:52;;;;;;;26.00;14.23;;;;;;;-11.14;85.00;99748.02;1738009;82;21740;-82
2021/12/24 00:50:23;;;;;;;21.87;11.97;;;;;;;-11.14;85.08;99742.83;1758085;81;21683;-75
2021/12/24 00:52:56;;;;;;;26.77;17.17;;;;;;;-11.12;85.08;99743.52;1713497;82;22011;-76
2021/12/24 00:55:22;;;;;;;30.40;16.93;;;;;;;-11.13;85.15;99737.53;1759032;81;21532;-84
2021/12/24 00:57:52;;;;;;;22.70;12.87;;;;;;;-11.09;85.00;99727.28;1731853;82;21775;-82
2021/12/24 01:00:34;;;;;;;27.93;15.30;;;;;;;-11.09;85.00;99727.28;1726738;83;21018;-81
2021/12/24 01:03:01;;;;;;;22.90;14.23;;;;;;;-11.11;84.96;99723.12;1706588;82;22212;-80
2021/12/24 01:05:30;;;;;;;17.90;12.87;;;;;;;-11.15;84.97;99726.42;1726687;83;20986;-83
2021/12/24 01:07:56;;;;;;;15.30;10.43;;;;;;;-11.18;85.04;99716.73;1727050;81;21698;-84
2021/12/24 01:10:28;;;;;;;19.57;12.83;;;;;;;-11.19;85.23;99717.20;1715950;83;22218;-79
2021/12/24 01:12:55;;;;;;;26.77;14.10;;;;;;;-11.18;85.39;99711.08;1720468;81;21812;-80
2021/12/24 01:15:22;;;;;;;27.60;16.83;;;;;;;-11.18;85.36;99702.00;1735231;81;21650;-82
2021/12/24 01:18:00;;;;;;;23.50;13.97;;;;;;;-11.16;85.43;99697.97;1731672;81;21695;-81
2021/12/24 01:20:40;;;;;;;25.93;13.20;;;;;;;-11.17;85.43;99691.95;1739424;82;22162;-81
2021/12/24 01:25:29;;;;;;;28.13;16.33;;;;;;;-11.15;85.44;99681.46;1756319;81;21692;-83
2021/12/24 01:28:28;;;;;;;25.73;15.77;;;;;;;-11.11;85.41;99677.70;1734680;82;21646;-84
2021/12/24 01:41:09;;;;;;;30.53;13.37;;;;;;;-11.16;85.16;99640.86;1670529;81;21847;-76
2021/12/24 01:43:35;;;;;;;30.47;11.80;;;;;;;-11.16;85.15;99633.08;1755858;81;21630;-75
2021/12/24 01:46:01;;;;;;;19.23;11.63;;;;;;;-11.16;85.17;99632.61;1705446;81;21718;-84
2021/12/24 01:48:28;;;;;;;24.27;15.20;;;;;;;-11.17;85.12;99624.92;1712034;82;21744;-80
2021/12/24 01:50:55;;;;;;;30.00;14.83;;;;;;;-11.18;85.12;99618.94;1755749;81;22218;-77
2021/12/24 01:53:24;;;;;;;29.53;17.37;;;;;;;-11.16;85.13;99618.80;1756234;81;21579;-84
2021/12/24 01:55:51;;;;;;;15.30;11.50;;;;;;;-11.16;85.10;99603.23;1735105;81;21717;-83
2021/12/24 01:58:21;;;;;;;25.27;13.93;;;;;;;-11.12;85.11;99598.98;1755777;81;21653;-85
2021/12/24 02:00:49;;;;;;;21.03;14.03;;;;;;;-11.06;85.13;99594.64;1756702;81;20972;-84
2021/12/24 02:03:17;;;;;;;20.60;13.33;;;;;;;-10.96;85.03;99583.09;1756722;81;21719;-83
2021/12/24 02:05:44;;;;;;;16.63;12.07;;;;;;;-10.96;85.03;99583.09;1707063;83;21092;-86
2021/12/24 02:08:11;;;;;;;23.50;10.43;;;;;;;-10.93;84.77;99581.55;1708880;83;22344;-75
2021/12/24 02:10:38;;;;;;;17.20;11.30;;;;;;;-10.92;84.77;99572.81;1695466;84;22950;-76
2021/12/24 02:13:04;;;;;;;20.57;14.00;;;;;;;-10.90;84.72;99566.22;1685719;83;22289;-75
2021/12/24 02:29:08;;;;;;;25.63;17.00;;;;;;;-10.75;84.16;99531.28;1691132;84;21709;-70
2021/12/24 02:31:34;;;;;;;16.13;12.40;;;;;;;-10.75;84.16;99531.28;1655175;85;21016;-73
2021/12/24 02:34:01;;;;;;;21.43;12.53;;;;;;;-10.79;84.06;99523.38;1673833;84;21033;-73
2021/12/24 02:36:28;;;;;;;17.37;11.17;;;;;;;-10.79;84.06;99523.38;1674402;85;21031;-73
2021/12/24 02:38:55;;;;;;;16.47;10.27;;;;;;;-10.82;83.97;99520.53;1662088;85;21037;-72
2021/12/24 02:41:22;;;;;;;20.33;13.07;;;;;;;-10.76;83.71;99504.48;1673760;83;22408;-84
2021/12/24 02:43:50;;;;;;;15.77;12.83;;;;;;;-10.76;83.71;99504.48;1700241;83;21613;-86
2021/12/24 02:46:33;;;;;;;15.27;10.03;;;;;;;-10.77;83.69;99497.63;1693422;84;20972;-76
2021/12/24 02:54:10;;;;;;;17.83;10.30;;;;;;;-10.62;83.17;99493.83;1711489;82;21017;-82
2021/12/24 02:56:39;;;;;;;15.10;10.27;;;;;;;-10.62;82.98;99494.30;1706088;84;21736;-82
2021/12/24 02:59:11;;;;;;;22.37;13.87;;;;;;;-10.66;82.86;99482.03;1696833;82;21043;-76
2021/12/24 03:01:41;;;;;;;24.57;13.67;;;;;;;-10.66;82.84;99485.10;1712433;83;21091;-75
2021/12/24 03:04:07;;;;;;;21.13;12.30;;;;;;;-10.69;82.82;99482.72;1687278;83;20982;-72
2021/12/24 03:06:41;;;;;;;17.87;12.63;;;;;;;-10.72;82.78;99477.78;1691465;84;21044;-75
2021/12/24 03:09:11;;;;;;;17.20;12.13;;;;;;;-10.73;82.86;99467.03;1670423;84;21490;-74
2021/12/24 03:11:39;;;;;;;15.77;9.93;;;;;;;-10.73;82.90;99466.56;1668965;84;21008;-76
2021/12/24 03:14:06;;;;;;;19.17;12.87;;;;;;;-10.76;82.89;99464.69;1691353;84;21091;-88
2021/12/24 03:16:35;;;;;;;16.60;10.43;;;;;;;-10.77;83.03;99454.77;1715296;83;21007;-78
2021/12/24 03:19:02;;;;;;;19.30;10.90;;;;;;;-10.80;83.16;99457.63;1690917;84;21074;-75
2021/12/24 03:21:39;;;;;;;14.83;8.27;;;;;;;-10.84;83.43;99438.03;1715030;83;21224;-76
2021/12/24 03:26:36;;;;;;;16.73;10.63;;;;;;;-10.84;83.50;99428.95;1714804;83;21081;-70
2021/12/24 03:29:07;;;;;;;19.47;7.03;;;;;;;-10.83;83.51;99429.75;1690818;84;20971;-84
2021/12/24 03:31:33;;;;;;;22.27;13.30;;;;;;;-10.81;83.47;99426.56;1690430;84;21095;-80
2021/12/24 03:34:00;;;;;;;18.70;12.40;;;;;;;-10.80;83.40;99427.75;1691845;82;21056;-82
2021/12/24 03:36:29;;;;;;;26.13;14.47;;;;;;;-10.78;83.40;99412.03;1683138;84;20995;-79
2021/12/24 03:38:55;;;;;;;14.90;9.63;;;;;;;-10.80;83.42;99395.29;1657708;86;21612;-79
2021/12/24 03:41:23;;;;;;;15.17;10.77;;;;;;;-10.77;83.25;99399.41;1674919;84;21071;-78
2021/12/24 03:43:49;;;;;;;19.63;10.60;;;;;;;-10.77;83.14;99389.02;1667558;84;22256;-82
2021/12/24 03:46:19;;;;;;;13.03;10.17;;;;;;;-10.77;83.14;99378.63;1714924;83;21099;-75
2021/12/24 03:48:53;;;;;;;22.37;14.77;;;;;;;-10.73;83.47;99386.05;1690893;84;21664;-77
2021/12/24 03:56:36;;;;;;;13.70;9.67;;;;;;;-10.70;82.79;99390.19;1691702;84;21020;-87
2021/12/24 03:59:03;;;;;;;22.73;13.43;;;;;;;-10.73;82.59;99378.72;1690715;84;21037;-86
2021/12/24 04:01:48;;;;;;;25.77;13.57;;;;;;;-10.75;82.65;99378.88;1666188;85;21084;-87
2021/12/24 04:04:34;;;;;;;17.90;11.30;;;;;;;-10.78;82.64;99369.17;1712764;82;21009;-81
2021/12/24 04:07:20;;;;;;;16.00;10.20;;;;;;;-10.75;82.69;99358.09;1706836;84;21508;-83
2021/12/24 04:12:26;;;;;;;17.17;10.70;;;;;;;-10.75;82.69;99344.28;1660003;84;21206;-85
2021/12/24 04:14:53;;;;;;;18.47;9.97;;;;;;;-10.74;82.56;99342.83;1737428;82;20992;-85
2021/12/24 04:17:21;;;;;;;22.83;14.03;;;;;;;-10.77;82.51;99334.00;1737936;82;21127;-88
2021/12/24 04:25:24;;;;;;;16.73;12.50;;;;;;;-10.77;82.62;99328.81;1707238;84;22271;-86
2021/12/24 04:27:52;;;;;;;23.33;13.57;;;;;;;-10.77;82.69;99318.89;1688925;82;21039;-82
2021/12/24 04:30:25;;;;;;;21.20;13.20;;;;;;;-10.73;82.75;99319.81;1680385;84;20964;-85
2021/12/24 04:32:58;;;;;;;23.38;15.78;;;;;;;-10.73;82.68;99309.89;1678571;85;26948;-86
2021/12/24 04:38:10;;;;;;;12.00;8.60;;;;;;;-10.77;82.78;99289.02;1711972;82;21743;-84
2021/12/24 04:51:16;;;;;;;14.47;9.90;;;;;;;-10.70;82.69;99266.34;1737799;82;21493;-87
2021/12/24 05:02:25;;;;;;;17.43;11.70;;;;;;;-10.68;83.04;99266.19;1736984;82;21032;-83
2021/12/24 05:04:48;;;;;;;19.42;10.65;;;;;;;-10.63;83.04;99262.27;1733658;82;21131;-82
2021/12/24 05:07:20;;;;;;;21.33;11.20;;;;;;;-10.57;83.04;99258.34;1735641;82;21086;-87
2021/12/24 05:09:40;;;;;;;21.20;12.63;;;;;;;-10.53;83.01;99256.31;1715495;82;20943;-83
2021/12/24 05:12:08;;;;;;;13.67;10.07;;;;;;;-10.47;83.03;99246.72;1737229;82;21003;-85
2021/12/24 05:14:34;;;;;;;14.30;8.17;;;;;;;-10.38;83.12;99238.97;1737452;81;21043;-84
2021/12/24 05:17:22;;;;;;;18.80;12.10;;;;;;;-10.35;82.75;99232.67;1704477;84;21080;-83
2021/12/24 05:22:37;;;;;;;17.87;10.60;;;;;;;-10.34;82.84;99224.77;1709818;82;21517;-85
2021/12/24 05:25:07;;;;;;;9.23;6.63;;;;;;;-10.27;82.76;99228.50;1706277;84;21065;-84
2021/12/24 05:27:35;;;;;;;10.03;8.30;;;;;;;-10.29;82.60;99220.00;1723173;82;21053;-86
2021/12/24 05:30:04;;;;;;;17.97;9.53;;;;;;;-10.29;82.69;99215.28;1706501;84;21568;-86
2021/12/24 05:32:30;;;;;;;18.07;10.60;;;;;;;-10.30;82.83;99210.55;1651533;85;21082;-84
2021/12/24 05:34:57;;;;;;;15.17;9.80;;;;;;;-10.27;82.89;99207.72;1722355;82;21084;-85
2021/12/24 05:37:24;;;;;;;15.30;11.13;;;;;;;-10.25;82.92;99201.89;1680413;84;21114;-86
2021/12/24 05:39:51;;;;;;;14.03;11.00;;;;;;;-10.25;83.00;99207.56;1737457;82;21059;-83
2021/12/24 05:42:22;;;;;;;13.87;8.47;;;;;;;-10.22;83.10;99205.55;1736401;82;21047;-85
2021/12/24 05:44:48;;;;;;;10.80;6.63;;;;;;;-10.19;83.15;99208.34;1711791;82;21533;-85
2021/12/24 05:47:16;;;;;;;13.90;9.63;;;;;;;-10.13;83.18;99201.77;1735333;82;20935;-86
2021/12/24 05:49:48;;;;;;;11.67;9.00;;;;;;;-10.08;83.13;99202.20;1707665;84;21572;-86
2021/12/24 05:52:34;;;;;;;20.67;12.50;;;;;;;-10.04;83.13;99213.52;1723259;83;21189;-82
2021/12/24 05:55:04;;;;;;;19.40;12.03;;;;;;;-9.99;83.06;99215.72;1732451;82;21762;-78
2021/12/24 05:57:32;;;;;;;21.93;13.50;;;;;;;-9.94;82.95;99201.84;1682258;84;20959;-78
2021/12/24 05:59:58;;;;;;;20.87;13.33;;;;;;;-9.89;82.97;99202.27;1737832;82;21093;-78
2021/12/24 06:02:24;;;;;;;16.17;9.63;;;;;;;-9.86;82.82;99194.19;1737308;82;21097;-82
2021/12/24 06:04:51;;;;;;;17.13;9.87;;;;;;;-9.79;82.78;99205.25;1750771;81;21074;-81
2021/12/24 06:07:19;;;;;;;17.40;10.57;;;;;;;-9.78;82.67;99202.97;1694050;82;21026;-78
2021/12/24 06:09:45;;;;;;;17.83;10.97;;;;;;;-9.78;82.79;99186.05;1713210;82;21584;-80
2021/12/24 06:12:14;;;;;;;14.07;9.87;;;;;;;-9.69;82.76;99186.23;1690224;84;21234;-82
2021/12/24 06:14:41;;;;;;;12.27;9.93;;;;;;;-9.68;82.65;99180.88;1680112;84;21486;-80
2021/12/24 06:17:14;;;;;;;20.50;12.20;;;;;;;-9.63;82.62;99179.17;1674893;85;21576;-79
2021/12/24 06:19:37;;;;;;;14.43;9.83;;;;;;;-9.62;82.52;99175.14;1689603;83;21654;-86
2021/12/24 06:22:04;;;;;;;16.27;10.23;;;;;;;-9.57;82.54;99163.02;1675548;85;21531;-84
2021/12/24 06:24:32;;;;;;;19.13;12.07;;;;;;;-9.55;82.46;99158.05;1690736;83;21033;-87
2021/12/24 06:27:06;;;;;;;14.60;10.37;;;;;;;-9.47;82.47;99156.05;1717737;83;21569;-85
2021/12/24 06:29:32;;;;;;;12.73;9.73;;;;;;;-9.42;82.42;99146.05;1717377;82;21053;-85
2021/12/24 06:31:59;;;;;;;12.50;9.47;;;;;;;-9.42;82.32;99152.08;1694862;83;22128;-86
2021/12/24 06:34:30;;;;;;;17.87;12.23;;;;;;;-9.37;82.36;99145.98;1717665;82;20970;-87
2021/12/24 06:36:53;;;;;;;17.63;10.07;;;;;;;-9.31;82.32;99142.02;1717154;83;21043;-84
2021/12/24 06:39:19;;;;;;;19.77;11.97;;;;;;;-9.26;82.17;99138.52;1705387;82;21052;-85
2021/12/24 06:41:47;;;;;;;19.17;9.73;;;;;;;-9.21;82.16;99129.82;1717529;83;21003;-85
2021/12/24 06:44:14;;;;;;;19.60;9.83;;;;;;;-9.18;82.04;99136.05;1717367;83;21127;-83
2021/12/24 06:46:41;;;;;;;14.77;10.67;;;;;;;-9.13;82.08;99129.94;1694830;83;20966;-88
2021/12/24 06:49:08;;;;;;;15.13;8.87;;;;;;;-9.10;82.05;99132.25;1674443;84;21014;-87
2021/12/24 06:51:35;;;;;;;12.97;8.67;;;;;;;-9.03;82.08;99122.94;1717292;83;21534;-87
2021/12/24 06:54:01;;;;;;;18.33;12.57;;;;;;;-8.98;82.06;99105.59;1717200;83;21507;-89
2021/12/24 06:56:29;;;;;;;14.37;10.77;;;;;;;-8.92;82.03;99111.55;1717208;83;21987;-89
2021/12/24 06:58:55;;;;;;;14.70;10.30;;;;;;;-8.85;81.93;99099.58;1704662;84;21074;-90
2021/12/24 07:01:21;;;;;;;15.33;10.43;;;;;;;-8.80;81.75;99079.61;1694663;83;21080;-84
2021/12/24 07:03:48;;;;;;;16.70;10.40;;;;;;;-8.73;81.81;99085.44;1717296;83;21092;-85
2021/12/24 07:06:15;;;;;;;16.00;10.47;;;;;;;-8.65;81.71;99073.80;1717898;83;21032;-88
2021/12/24 07:08:41;;;;;;;14.33;9.23;;;;;;;-8.58;81.74;99079.25;1706701;84;21945;-88
2021/12/24 07:11:08;;;;;;;14.47;8.83;;;;;;;-8.48;81.74;99073.51;1694599;83;20979;-84
2021/12/24 07:13:36;;;;;;;18.73;10.97;;;;;;;-8.39;81.45;99063.52;1719907;83;21019;-84
2021/12/24 07:16:02;;;;;;;12.30;7.53;;;;;;;-8.32;81.30;99054.64;1737555;81;21106;-86
2021/12/24 07:18:29;;;;;;;16.93;9.83;;;;;;;-8.30;81.03;99049.63;1712368;82;21046;-82
2021/12/24 07:20:55;;;;;;;18.97;10.10;;;;;;;-8.26;81.05;99048.81;1740083;82;21105;-81
2021/12/24 07:23:22;;;;;;;19.17;11.73;;;;;;;-8.21;81.06;99046.11;1740462;80;21006;-81
2021/12/24 07:25:48;;;;;;;15.53;7.80;;;;;;;-8.15;80.94;99043.41;1710327;83;20972;-85
2021/12/24 07:28:15;;;;;;;11.17;8.03;;;;;;;-8.10;80.80;99034.63;1737446;82;20963;-83
2021/12/24 07:30:42;;;;;;;12.07;8.57;;;;;;;-8.03;80.84;99031.30;1737389;82;21093;-88
2021/12/24 07:33:08;;;;;;;18.07;9.27;;;;;;;-7.99;80.54;99027.90;1737522;82;21122;-88
2021/12/24 07:35:35;;;;;;;12.07;8.60;;;;;;;-7.96;80.37;99024.50;1729894;82;20960;-87
2021/12/24 07:38:01;;;;;;;19.70;10.27;;;;;;;-7.87;80.39;99024.11;1677470;85;21015;-88
2021/12/24 07:40:29;;;;;;;17.10;10.03;;;;;;;-7.76;80.31;99021.73;1707016;84;21091;-88
2021/12/24 07:42:55;;;;;;;16.77;9.07;;;;;;;-7.71;79.93;99011.19;1668837;84;21035;-83
2021/12/24 07:45:22;;;;;;;14.47;6.83;;;;;;;-7.67;79.76;99007.30;1715610;83;21318;-89
2021/12/24 07:48:06;;;;;;;10.37;7.57;;;;;;;-7.64;79.46;99007.50;1699173;83;21004;-78
2021/12/24 07:52:54;;;;;;;12.17;7.03;;;;;;;-7.59;79.29;98993.51;1718226;83;20991;-84
2021/12/24 07:55:21;;;;;;;15.10;11.07;;;;;;;-7.60;79.26;98993.98;1737408;82;21123;-84
2021/12/24 07:57:51;;;;;;;11.17;7.57;;;;;;;-7.54;79.42;98980.82;1736285;82;21119;-85
2021/12/24 08:00:17;;;;;;;13.27;5.93;;;;;;;-7.50;79.24;98986.06;1737492;82;21064;-84
2021/12/24 08:02:43;;;;;;;14.83;10.03;;;;;;;-7.52;79.25;98982.77;1735045;82;20984;-83
2021/12/24 08:05:17;;;;;;;13.03;8.73;;;;;;;-7.47;79.35;98984.92;1706627;84;21026;-85
2021/12/24 08:07:47;;;;;;;16.57;8.98;;;;;;;-7.42;79.38;98981.38;1689496;84;21537;-84
2021/12/24 08:10:15;;;;;;;16.23;8.63;;;;;;;-7.38;79.39;98976.17;1735999;82;21004;-83
2021/12/24 08:12:42;;;;;;;16.23;8.10;;;;;;;-7.33;79.26;98968.70;1712252;82;21066;-83
2021/12/24 08:15:09;;;;;;;8.70;6.57;;;;;;;-7.30;79.20;98961.39;1737586;82;21094;-87
2021/12/24 08:17:35;;;;;;;10.70;7.17;;;;;;;-7.26;79.00;98957.50;1733641;82;21297;-86
2021/12/24 08:20:07;;;;;;;16.07;8.30;;;;;;;-7.24;79.05;98946.39;1735604;82;21064;-86
2021/12/24 08:22:36;;;;;;;8.23;5.93;;;;;;;-7.21;78.90;98946.58;1737603;82;22000;-87
2021/12/24 08:25:05;;;;;;;13.47;9.07;;;;;;;-7.22;78.54;98950.98;1706836;84;21121;-87
2021/12/24 08:27:34;;;;;;;13.80;8.27;;;;;;;-7.23;78.70;98937.58;1715627;83;21044;-86
2021/12/24 08:30:03;;;;;;;13.03;6.87;;;;;;;-7.22;78.90;98932.70;1679792;84;21839;-84
2021/12/24 08:32:31;;;;;;;9.40;6.20;;;;;;;-7.21;78.97;98920.46;1737241;81;21058;-83
2021/12/24 08:34:57;;;;;;;13.60;8.60;;;;;;;-7.22;79.01;98918.81;1737372;82;21160;-84
2021/12/24 08:37:23;;;;;;;10.50;7.43;;;;;;;-7.16;79.16;98917.72;1707763;82;21055;-84
2021/12/24 08:39:52;;;;;;;13.20;7.80;;;;;;;-7.10;79.15;98897.98;1678735;83;20992;-83
2021/12/24 08:42:21;;;;;;;12.33;8.40;;;;;;;-7.10;79.06;98900.09;1738450;82;21516;-82
2021/12/24 08:44:48;;;;;;;14.43;10.63;;;;;;;-7.06;79.14;98885.76;1705170;84;20967;-86
2021/12/24 08:47:17;;;;;;;14.07;8.47;;;;;;;-7.02;79.24;98871.06;1680780;84;21100;-82
2021/12/24 08:49:43;;;;;;;12.27;8.10;;;;;;;-6.97;79.30;98874.02;1735610;82;21101;-81
2021/12/24 08:52:09;;;;;;;14.57;9.97;;;;;;;-6.96;79.37;98853.45;1737264;81;21595;-82
2021/12/24 08:54:36;;;;;;;19.73;11.30;;;;;;;-6.93;79.44;98854.42;1746524;81;21172;-80
2021/12/24 08:57:03;;;;;;;15.77;9.73;;;;;;;-6.93;79.38;98848.72;1737207;82;21059;-80
2021/12/24 08:59:30;;;;;;;11.97;8.07;;;;;;;-6.86;79.47;98834.53;1731919;82;21639;-81
2021/12/24 09:01:58;;;;;;;8.17;5.97;;;;;;;-6.83;79.39;98840.73;1723337;82;21082;-79
2021/12/24 09:04:25;;;;;;;9.40;6.17;;;;;;;-6.82;79.56;98838.45;1721034;82;21021;-87
2021/12/24 09:06:51;;;;;;;12.97;10.37;;;;;;;-6.79;79.64;98821.13;1708807;81;21040;-85
2021/12/24 09:09:18;;;;;;;11.13;7.47;;;;;;;-6.79;79.63;98814.59;1669127;84;21055;-87
2021/12/24 09:11:45;;;;;;;15.77;8.60;;;;;;;-6.74;79.79;98811.02;1643758;85;21119;-86
2021/12/24 09:14:17;;;;;;;11.57;7.13;;;;;;;-6.73;79.91;98800.89;1677049;85;21586;-82
2021/12/24 09:16:41;;;;;;;21.40;10.87;;;;;;;-6.70;79.89;98805.78;1672537;85;21297;-86
2021/12/24 09:19:13;;;;;;;16.17;9.90;;;;;;;-6.67;80.00;98786.69;1682315;84;21046;-85
2021/12/24 09:21:40;;;;;;;9.27;7.70;;;;;;;-6.67;79.99;98776.72;1679541;82;21063;-86
2021/12/24 09:24:08;;;;;;;14.63;10.13;;;;;;;-6.67;80.09;98763.66;1671524;85;21587;-82
2021/12/24 09:26:37;;;;;;;9.10;6.57;;;;;;;-6.68;80.20;98765.45;1676901;85;21591;-76
2021/12/24 09:29:07;;;;;;;9.80;6.13;;;;;;;-6.65;80.40;98741.58;1661788;84;21066;-81
2021/12/24 09:31:35;;;;;;;14.33;9.67;;;;;;;-6.61;80.38;98742.87;1689802;83;21136;-80
2021/12/24 09:34:04;;;;;;;11.23;7.43;;;;;;;-6.62;80.45;98744.37;1669494;84;21051;-84
2021/12/24 09:36:30;;;;;;;11.83;8.33;;;;;;;-6.62;80.59;98745.68;1660054;84;21524;-82
2021/12/24 09:39:01;;;;;;;7.77;6.63;;;;;;;-6.64;80.72;98740.61;1677704;85;20975;-82
2021/12/24 09:41:28;;;;;;;18.13;10.13;;;;;;;-6.66;81.04;98730.79;1652995;86;21108;-84
2021/12/24 09:43:58;;;;;;;10.37;6.77;;;;;;;-6.62;81.17;98715.09;1679833;85;21074;-86
2021/12/24 09:46:25;;;;;;;10.17;6.83;;;;;;;-6.59;81.22;98721.81;1682596;84;21019;-84
2021/12/24 09:48:54;;;;;;;15.60;7.30;;;;;;;-6.58;81.48;98714.78;1680995;84;21594;-87
2021/12/24 09:51:24;;;;;;;13.80;10.83;;;;;;;-6.57;81.60;98704.66;1676638;84;20994;-88
2021/12/24 09:53:51;;;;;;;16.80;9.93;;;;;;;-6.51;81.73;98694.83;1683746;84;21051;-91
2021/12/24 09:56:17;;;;;;;8.37;7.00;;;;;;;-6.46;81.72;98688.61;1629613;85;21065;-86
2021/12/24 09:58:43;;;;;;;7.67;6.67;;;;;;;-6.43;81.55;98686.98;1648650;85;21121;-87
2021/12/24 10:01:22;;;;;;;16.60;10.20;;;;;;;-6.38;81.52;98676.33;1687000;84;21236;-84
2021/12/24 10:04:00;;;;;;;13.30;8.27;;;;;;;-6.35;81.47;98679.93;1618871;88;21071;-82
2021/12/24 10:06:27;;;;;;;12.03;8.70;;;;;;;-6.31;81.63;98678.61;1674979;82;21019;-89
2021/12/24 10:09:04;;;;;;;11.47;8.53;;;;;;;-6.34;81.53;98659.83;1712033;82;21008;-84
2021/12/24 10:11:49;;;;;;;16.20;10.10;;;;;;;-6.35;81.66;98650.34;1735704;82;21195;-83
2021/12/24 10:14:19;;;;;;;11.73;8.50;;;;;;;-6.32;81.67;98648.69;1720042;82;21879;-81
2021/12/24 10:16:48;;;;;;;13.03;8.87;;;;;;;-6.25;81.68;98638.70;1736035;82;20979;-82
2021/12/24 10:19:19;;;;;;;12.40;9.57;;;;;;;-6.22;81.39;98640.97;1731239;82;21042;-83
2021/12/24 10:21:46;;;;;;;16.60;9.30;;;;;;;-6.22;81.33;98636.23;1713646;82;20947;-84
2021/12/24 10:24:17;;;;;;;14.90;9.90;;;;;;;-6.20;81.28;98637.70;1725419;82;21030;-81
2021/12/24 10:26:50;;;;;;;8.57;7.07;;;;;;;-6.14;81.33;98626.24;1711783;82;21141;-81
2021/12/24 10:29:19;;;;;;;;;;;;;;;-6.13;81.15;98617.38;1719663;83;20969;-78
2021/12/24 10:31:54;;;;;;;16.33;10.17;;;;;;;-6.12;81.06;98613.30;1719301;82;20176;-79
2021/12/24 10:34:25;;;;;;;;;;;;;;;-6.13;81.14;98618.69;1722450;83;21043;-76
2021/12/24 10:37:11;;;;;;;16.93;9.67;;;;;;;-6.15;81.47;98606.30;1709609;82;20271;-79
2021/12/24 10:39:43;;;;;;;13.30;8.23;;;;;;;-6.17;81.54;98599.91;1707785;84;21082;-79
2021/12/24 10:42:21;;;;;;;16.20;10.83;;;;;;;-6.16;81.66;98587.16;1682699;84;21063;-78
2021/12/24 10:44:51;;;;;;;16.63;9.43;;;;;;;-6.16;81.83;98578.00;1639869;84;21094;-77
2021/12/24 10:47:25;;;;;;;14.30;10.73;;;;;;;-6.13;82.09;98568.98;1704495;82;20963;-82
2021/12/24 10:55:47;;;;;;;13.37;9.53;;;;;;;-6.08;82.68;98558.33;1683833;84;21027;-90
2021/12/24 10:58:24;;;;;;;13.47;9.20;;;;;;;-6.07;82.75;98546.88;1710543;83;21548;-91
2021/12/24 11:00:59;;;;;;;20.67;10.33;;;;;;;-6.08;82.91;98537.39;1719391;83;21079;-85
2021/12/24 11:03:28;;;;;;;14.10;9.47;;;;;;;-6.10;83.14;98533.33;1705094;82;21571;-81
2021/12/24 11:06:08;;;;;;;15.43;11.30;;;;;;;-6.05;83.19;98538.37;1714222;82;21160;-86
2021/12/24 11:08:37;;;;;;;13.67;10.20;;;;;;;-5.99;83.16;98541.59;1696238;84;21069;-82
2021/12/24 11:11:10;;;;;;;15.10;10.03;;;;;;;-6.00;83.07;98544.40;1704511;84;21038;-87
2021/12/24 11:13:42;;;;;;;19.40;10.67;;;;;;;-6.05;83.30;98533.63;1676363;84;22164;-81
2021/12/24 11:16:18;;;;;;;10.20;8.58;;;;;;;-6.04;83.46;98526.11;1671694;85;21105;-87
2021/12/24 11:18:56;;;;;;;17.20;11.37;;;;;;;-6.04;83.40;98520.88;1665125;85;21147;-91
2021/12/24 11:21:28;;;;;;;17.83;11.07;;;;;;;-5.97;83.48;98512.14;1677691;85;20953;-77
2021/12/24 11:23:56;;;;;;;17.80;11.73;;;;;;;-5.89;83.34;98499.48;1663079;85;21001;-82
2021/12/24 11:26:33;;;;;;;11.40;7.80;;;;;;;-5.89;83.26;98495.56;1677424;85;21051;-83
2021/12/24 11:29:04;;;;;;;17.73;10.73;;;;;;;-5.87;83.23;98491.80;1675903;85;21611;-83
2021/12/24 11:31:32;;;;;;;14.50;10.47;;;;;;;-5.80;83.25;98491.86;1687269;84;21129;-80
2021/12/24 11:33:58;;;;;;;10.77;8.83;;;;;;;-5.80;82.98;98498.40;1690410;84;21029;-82
2021/12/24 11:36:27;;;;;;;12.70;10.60;;;;;;;-5.78;82.99;98494.63;1689927;84;21040;-78
2021/12/24 11:38:56;;;;;;;13.13;10.27;;;;;;;-5.75;83.06;98489.53;1688674;84;21056;-77
2021/12/24 11:41:27;;;;;;;15.30;12.07;;;;;;;-5.71;83.00;98494.76;1705304;83;21050;-78
2021/12/24 11:43:55;;;;;;;11.97;7.17;;;;;;;-5.72;83.03;98500.48;1698403;84;21664;-74
2021/12/24 11:46:24;;;;;;;14.70;9.97;;;;;;;-5.68;83.15;98506.67;1695637;84;21022;-72
2021/12/24 11:48:52;;;;;;;14.73;10.70;;;;;;;-5.68;83.17;98491.78;1651211;85;21070;-83
2021/12/24 11:51:22;;;;;;;20.57;11.77;;;;;;;-5.67;83.23;98483.43;1629720;87;21083;-74
2021/12/24 11:53:51;;;;;;;13.30;9.57;;;;;;;-5.69;83.34;98473.61;1682882;84;21573;-74
2021/12/24 11:56:19;;;;;;;20.33;11.80;;;;;;;-5.71;83.42;98475.91;1647434;84;21339;-81
2021/12/24 11:58:53;;;;;;;15.10;12.17;;;;;;;-5.68;83.62;98467.39;1660175;84;21609;-84
2021/12/24 12:01:24;;;;;;;18.27;13.27;;;;;;;-5.66;83.60;98458.39;1669615;84;43591;-79
2021/12/24 12:03:54;;;;;;;16.23;10.30;;;;;;;-5.61;83.61;98448.69;1688902;84;21347;-82
2021/12/24 12:06:29;;;;;;;16.77;11.60;;;;;;;-5.54;83.70;98446.48;1670268;84;21078;-88
2021/12/24 12:09:00;;;;;;;25.20;11.80;;;;;;;-5.52;83.71;98444.52;1707995;83;21110;-78
2021/12/24 12:11:28;;;;;;;14.70;10.27;;;;;;;-5.51;83.65;98438.75;1681601;84;21302;-81
2021/12/24 12:14:14;;;;;;;15.20;11.63;;;;;;;-5.47;83.81;98438.73;1716273;83;21028;-80
2021/12/24 12:16:50;;;;;;;19.40;12.60;;;;;;;-5.44;83.79;98438.37;1716390;83;21528;-79
2021/12/24 12:19:38;;;;;;;16.70;12.33;;;;;;;-5.45;83.77;98428.38;1685896;84;21014;-85
2021/12/24 12:22:34;;;;;;;18.03;13.87;;;;;;;-5.39;83.94;98431.60;1716162;83;21089;-88
2021/12/24 12:25:09;;;;;;;23.37;15.27;;;;;;;-5.30;83.96;98426.59;1716709;83;20988;-81
2021/12/24 12:27:47;;;;;;;17.13;9.47;;;;;;;-5.20;83.87;98428.12;1695202;83;21501;-84
2021/12/24 12:30:36;;;;;;;16.97;12.70;;;;;;;-5.14;83.80;98415.13;1705367;82;21106;-84
2021/12/24 12:33:18;;;;;;;18.50;12.93;;;;;;;-5.17;83.66;98429.88;1675434;85;21128;-88
2021/12/24 12:35:58;;;;;;;16.30;12.73;;;;;;;-5.22;83.80;98425.68;1704610;83;21525;-78
2021/12/24 12:38:40;;;;;;;18.60;13.30;;;;;;;-5.22;83.96;98417.81;1704956;83;21072;-83
2021/12/24 12:41:38;;;;;;;14.23;10.53;;;;;;;-5.24;84.08;98413.77;1704533;84;21078;-88
2021/12/24 12:44:15;;;;;;;16.87;12.07;;;;;;;-5.22;84.32;98416.51;1682310;83;21484;-82
2021/12/24 12:46:43;;;;;;;15.93;10.23;;;;;;;-5.22;84.48;98418.31;1672520;85;21042;-81
2021/12/24 12:49:16;;;;;;;11.63;8.33;;;;;;;-5.24;84.65;98427.69;1677655;82;21173;-73
2021/12/24 12:51:59;;;;;;;15.37;11.60;;;;;;;-5.27;84.80;98423.59;1680468;84;21074;-73
2021/12/24 12:54:52;;;;;;;15.97;11.73;;;;;;;-5.23;84.88;98425.88;1705995;83;21006;-80
2021/12/24 12:57:25;;;;;;;23.32;12.47;;;;;;;-5.17;85.02;98426.45;1698208;83;21011;-74
2021/12/24 13:00:23;;;;;;;13.20;10.77;;;;;;;-5.09;85.08;98417.20;1705344;83;21086;-80
2021/12/24 13:03:12;;;;;;;23.77;13.90;;;;;;;-5.07;85.06;98400.78;1712388;83;22171;-79
2021/12/24 13:05:48;;;;;;;20.77;14.43;;;;;;;-5.02;85.13;98376.96;1711104;83;20985;-79
2021/12/24 13:08:21;;;;;;;17.17;12.43;;;;;;;-4.98;84.99;98366.92;1713240;83;21066;-74